Time;durP1;ratioP1;P1;durP2;ratioP2;P2;SDS_P1;SDS_P2;PMS_P1;PMS_P2;Temp;Humidity;BMP_temperature;BMP_pressure;BME280_temperature;BME280_humidity;BME280_pressure;Samples;Min_cycle;Max_cycle;Signal;HPM_P1;HPM_P2
2021/05/05 00:02:09;;;;;;;2.40;2.20;;;;;;;19.02;65.43;96315.41;5069837;28;20259;-66
2021/05/05 00:04:35;;;;;;;2.20;2.10;;;;;;;19.03;65.64;96306.03;5070033;28;20204;-66
2021/05/05 00:07:01;;;;;;;2.30;2.10;;;;;;;19.02;65.47;96307.75;5052255;28;20616;-65
2021/05/05 00:09:28;;;;;;;2.20;2.10;;;;;;;19.04;65.53;96308.63;5070256;28;20196;-66
2021/05/05 00:11:54;;;;;;;2.60;2.40;;;;;;;19.15;65.79;96332.63;5068778;28;20196;-66
2021/05/05 00:14:21;;;;;;;2.10;2.00;;;;;;;18.47;65.62;96210.75;5069767;28;20242;-66
2021/05/05 00:16:47;;;;;;;2.50;2.30;;;;;;;19.16;65.75;96348.75;5034978;28;20735;-66
2021/05/05 00:19:13;;;;;;;2.13;2.03;;;;;;;18.63;65.59;96235.69;5068563;28;20669;-65
2021/05/05 00:21:40;;;;;;;2.40;2.20;;;;;;;19.16;65.75;96324.13;5052276;28;20196;-66
2021/05/05 00:24:07;;;;;;;2.33;2.17;;;;;;;19.04;65.86;96295.06;5068257;28;20196;-65
2021/05/05 00:26:33;;;;;;;2.37;2.17;;;;;;;19.04;65.44;96285.72;5054335;28;20274;-66
2021/05/05 00:28:59;;;;;;;2.50;2.30;;;;;;;19.13;65.80;96305.41;5072487;28;20630;-66
2021/05/05 00:31:28;;;;;;;2.20;2.00;;;;;;;19.18;65.98;96307.22;5056149;28;20227;-66
2021/05/05 00:33:54;;;;;;;2.47;2.17;;;;;;;19.18;66.07;96313.97;5071682;28;20211;-66
2021/05/05 00:36:20;;;;;;;2.10;2.00;;;;;;;18.99;65.95;96284.78;5039129;28;20256;-66
2021/05/05 00:38:46;;;;;;;2.30;2.10;;;;;;;19.20;66.45;96318.28;5072834;28;20289;-66
2021/05/05 00:41:13;;;;;;;2.47;2.27;;;;;;;18.68;65.95;96217.97;5072474;28;20638;-66
2021/05/05 00:43:39;;;;;;;2.00;1.90;;;;;;;19.10;65.82;96303.66;5055491;28;20238;-66
2021/05/05 00:46:05;;;;;;;2.53;2.23;;;;;;;19.07;65.78;96274.75;5071958;28;20228;-65
2021/05/05 00:48:31;;;;;;;2.40;2.27;;;;;;;18.86;65.70;96249.72;5072530;28;20195;-66
2021/05/05 00:50:58;;;;;;;2.37;2.17;;;;;;;19.12;65.57;96283.31;5055837;28;20222;-66
2021/05/05 00:53:24;;;;;;;2.37;2.17;;;;;;;18.71;65.62;96190.06;5055523;28;20695;-66
2021/05/05 00:55:50;;;;;;;2.30;2.10;;;;;;;19.14;65.42;96291.84;5055713;28;20270;-66
2021/05/05 00:58:16;;;;;;;2.17;2.03;;;;;;;18.77;65.55;96224.09;5055535;28;20250;-66
2021/05/05 01:00:43;;;;;;;2.00;1.90;;;;;;;18.77;65.35;96207.97;5069423;28;20287;-66
2021/05/05 01:03:09;;;;;;;2.27;2.07;;;;;;;19.17;65.41;96264.75;5058623;28;20263;-67
2021/05/05 01:05:36;;;;;;;2.17;2.07;;;;;;;19.24;65.39;96291.19;5050117;28;20220;-65
2021/05/05 01:08:03;;;;;;;2.30;2.10;;;;;;;18.65;65.21;96164.50;5052306;28;20231;-66
2021/05/05 01:10:29;;;;;;;2.10;2.00;;;;;;;18.77;65.30;96206.28;5052184;28;20263;-66
2021/05/05 01:12:55;;;;;;;2.10;2.00;;;;;;;18.80;65.39;96185.97;5051083;28;20502;-66
2021/05/05 01:15:21;;;;;;;2.17;2.03;;;;;;;18.96;65.44;96210.91;5035293;28;20247;-66
2021/05/05 01:17:47;;;;;;;1.93;1.83;;;;;;;19.35;65.35;96274.44;5035314;28;20737;-66
2021/05/05 01:20:14;;;;;;;2.20;2.00;;;;;;;19.08;65.32;96245.91;5055147;28;20219;-64
2021/05/05 01:22:40;;;;;;;2.00;1.90;;;;;;;18.81;65.12;96190.25;5038738;28;20769;-65
2021/05/05 01:25:07;;;;;;;1.93;1.80;;;;;;;19.36;65.18;96282.13;5054451;28;20269;-66
2021/05/05 01:27:33;;;;;;;2.07;1.97;;;;;;;19.36;64.97;96284.66;5073221;28;20204;-65
2021/05/05 01:29:59;;;;;;;2.00;1.80;;;;;;;19.37;65.08;96290.63;5072790;28;20642;-67
2021/05/05 01:32:25;;;;;;;1.90;1.80;;;;;;;19.38;65.08;96298.28;5071408;28;20228;-65
2021/05/05 01:34:52;;;;;;;1.97;1.87;;;;;;;18.05;64.63;96073.44;5071053;28;20258;-66
2021/05/05 01:37:18;;;;;;;1.80;1.70;;;;;;;19.39;65.17;96279.63;5071735;28;20196;-66
2021/05/05 01:39:45;;;;;;;1.77;1.67;;;;;;;19.40;65.37;96318.72;5071383;28;20200;-66
2021/05/05 01:42:11;;;;;;;2.00;1.90;;;;;;;19.26;65.05;96266.59;5071373;28;20224;-66
2021/05/05 01:44:38;;;;;;;2.00;1.90;;;;;;;19.41;65.13;96305.13;5054348;28;20660;-66
2021/05/05 01:47:06;;;;;;;2.03;1.93;;;;;;;19.41;64.93;96295.81;5071107;28;20692;-66
2021/05/05 01:49:32;;;;;;;2.20;2.10;;;;;;;19.41;65.10;96293.25;5071409;28;20200;-66
2021/05/05 01:52:02;;;;;;;2.73;1.90;;;;;;;19.29;65.07;96279.44;5072474;28;20323;-66
2021/05/05 01:54:28;;;;;;;1.80;1.70;;;;;;;19.22;64.70;96272.47;5054175;28;20236;-65
2021/05/05 01:56:54;;;;;;;1.87;1.77;;;;;;;17.91;64.90;96062.13;5071374;28;20265;-66
2021/05/05 01:59:20;;;;;;;1.90;1.80;;;;;;;19.38;64.96;96302.53;5072315;28;20652;-65
2021/05/05 02:01:46;;;;;;;1.90;1.80;;;;;;;19.41;64.94;96305.13;5071193;28;20291;-65
2021/05/05 02:04:12;;;;;;;1.90;1.80;;;;;;;19.30;65.50;96294.75;5054058;28;20197;-66
2021/05/05 02:06:38;;;;;;;1.83;1.70;;;;;;;19.31;64.94;96272.69;5070855;28;20269;-66
2021/05/05 02:09:05;;;;;;;1.80;1.70;;;;;;;19.42;64.84;96299.22;5053940;28;20267;-66
2021/05/05 02:11:32;;;;;;;1.70;1.60;;;;;;;19.12;64.85;96245.97;5072247;28;20230;-66
2021/05/05 02:13:58;;;;;;;3.63;1.70;;;;;;;17.31;64.61;95959.22;5071454;28;20223;-67
2021/05/05 02:16:24;;;;;;;1.70;1.60;;;;;;;19.31;65.21;96293.06;5037458;28;20303;-66
2021/05/05 02:18:50;;;;;;;1.73;1.63;;;;;;;19.32;64.57;96282.03;5070584;28;20207;-66
2021/05/05 02:21:16;;;;;;;1.80;1.70;;;;;;;19.32;64.53;96272.72;5070638;28;20648;-66
2021/05/05 02:23:42;;;;;;;1.80;1.70;;;;;;;19.37;64.55;96275.34;5070482;28;20656;-65
2021/05/05 02:26:08;;;;;;;1.70;1.60;;;;;;;19.45;64.53;96281.44;5071702;28;20297;-66
2021/05/05 02:28:34;;;;;;;1.77;1.67;;;;;;;19.31;64.97;96265.91;5071630;28;20239;-66
2021/05/05 02:31:01;;;;;;;1.80;1.70;;;;;;;19.33;64.72;96261.69;5053947;28;20738;-66
2021/05/05 02:33:27;;;;;;;1.70;1.60;;;;;;;19.28;64.69;96267.53;5053461;28;20198;-66
2021/05/05 02:35:53;;;;;;;1.70;1.60;;;;;;;19.46;64.96;96283.16;5070308;28;20263;-66
2021/05/05 02:38:19;;;;;;;1.97;1.77;;;;;;;19.33;64.65;96259.13;5071542;28;20204;-65
2021/05/05 02:40:46;;;;;;;2.50;1.73;;;;;;;19.46;64.72;96284.03;5053883;28;20200;-65
2021/05/05 02:43:13;;;;;;;1.60;1.50;;;;;;;19.23;64.55;96247.03;5070979;28;20654;-65
2021/05/05 02:45:39;;;;;;;1.50;1.40;;;;;;;19.46;64.75;96286.56;5070221;28;20673;-67
2021/05/05 02:48:05;;;;;;;1.90;1.80;;;;;;;19.46;64.63;96275.50;5069775;28;20208;-66
2021/05/05 02:50:32;;;;;;;1.50;1.40;;;;;;;19.47;64.60;96264.47;5071480;28;20222;-65
2021/05/05 02:52:58;;;;;;;1.60;1.50;;;;;;;19.47;64.70;96261.91;5071215;28;20482;-66
2021/05/05 02:55:24;;;;;;;1.60;1.50;;;;;;;19.33;64.72;96241.31;5071276;28;20260;-66
2021/05/05 02:57:50;;;;;;;1.60;1.50;;;;;;;19.35;64.66;96238.78;5069970;28;20311;-66
2021/05/05 03:00:16;;;;;;;1.60;1.50;;;;;;;19.33;64.70;96236.22;5069750;28;20287;-66
2021/05/05 03:02:42;;;;;;;1.60;1.50;;;;;;;19.34;64.88;96234.53;5069647;28;20256;-67
2021/05/05 03:05:09;;;;;;;1.80;1.70;;;;;;;19.46;64.78;96252.56;5052943;28;20297;-66
2021/05/05 03:07:35;;;;;;;1.73;1.63;;;;;;;19.19;64.64;96198.56;5069993;28;20558;-65
2021/05/05 03:10:02;;;;;;;1.83;1.73;;;;;;;19.34;64.71;96226.88;5069735;28;20283;-66
2021/05/05 03:12:28;;;;;;;1.50;1.40;;;;;;;19.47;64.72;96247.50;5053060;28;20200;-65
2021/05/05 03:14:54;;;;;;;1.40;1.30;;;;;;;19.38;64.86;96229.50;5069939;28;20318;-66
2021/05/05 03:17:20;;;;;;;1.50;1.40;;;;;;;19.49;64.71;96247.53;5069590;28;20265;-66
2021/05/05 03:19:48;;;;;;;2.90;1.40;;;;;;;19.47;65.03;96246.63;5050785;28;20729;-66
2021/05/05 03:22:14;;;;;;;1.50;1.40;;;;;;;19.47;64.66;96244.97;5068868;28;20738;-66
2021/05/05 03:24:40;;;;;;;1.57;1.47;;;;;;;19.49;64.71;96247.53;5052713;28;20220;-67
2021/05/05 03:27:06;;;;;;;1.60;1.50;;;;;;;19.49;64.52;96247.53;5070376;28;20224;-66
2021/05/05 03:29:32;;;;;;;1.60;1.50;;;;;;;19.49;64.63;96260.28;5070930;28;20257;-66
2021/05/05 03:31:58;;;;;;;2.27;1.50;;;;;;;19.36;65.01;96246.44;5070239;28;20200;-65
2021/05/05 03:34:25;;;;;;;1.50;1.40;;;;;;;19.36;64.60;96235.44;5068786;28;20200;-66
2021/05/05 03:36:51;;;;;;;1.50;1.40;;;;;;;19.48;64.66;96269.59;5052825;28;20700;-65
2021/05/05 03:39:17;;;;;;;1.50;1.40;;;;;;;19.48;64.26;96272.13;5070299;28;20200;-66
2021/05/05 03:41:43;;;;;;;1.60;1.50;;;;;;;19.49;64.82;96273.00;5069090;28;20204;-66
2021/05/05 03:44:10;;;;;;;1.80;1.70;;;;;;;19.49;64.73;96276.44;5070079;28;20315;-66
2021/05/05 03:46:38;;;;;;;1.50;1.40;;;;;;;19.49;64.67;96285.75;5070612;28;20252;-65
2021/05/05 03:49:05;;;;;;;1.57;1.47;;;;;;;19.35;64.61;96257.47;5070460;28;20235;-66
2021/05/05 03:51:31;;;;;;;1.63;1.53;;;;;;;19.49;64.56;96283.19;5060007;28;20232;-65
2021/05/05 03:53:58;;;;;;;1.50;1.40;;;;;;;19.50;64.25;96282.34;5048782;28;20287;-67
2021/05/05 03:56:24;;;;;;;1.43;1.33;;;;;;;18.99;64.48;96197.34;5061938;28;20244;-66
2021/05/05 03:58:50;;;;;;;1.50;1.40;;;;;;;19.49;64.47;96289.16;5032909;28;20279;-67
2021/05/05 04:01:16;;;;;;;2.17;1.50;;;;;;;19.48;64.55;96289.13;5068705;28;20208;-67
2021/05/05 04:03:42;;;;;;;1.40;1.30;;;;;;;19.48;64.54;96284.88;5067952;28;20216;-67
2021/05/05 04:06:08;;;;;;;1.50;1.40;;;;;;;19.36;64.44;96261.75;5068267;28;20246;-67
2021/05/05 04:08:34;;;;;;;1.50;1.40;;;;;;;19.50;64.46;96288.31;5060386;28;20201;-67
2021/05/05 04:11:01;;;;;;;1.50;1.40;;;;;;;19.49;64.61;96290.84;5064337;28;20235;-67
2021/05/05 04:13:27;;;;;;;1.50;1.40;;;;;;;19.37;64.87;96277.88;5064103;28;20717;-66
2021/05/05 04:16:11;;;;;;;1.37;1.27;;;;;;;19.49;64.25;96309.56;5050879;28;20239;-65
2021/05/05 04:18:55;;;;;;;1.50;1.40;;;;;;;19.37;64.53;96290.63;5069015;28;20281;-65
2021/05/05 04:21:38;;;;;;;1.73;1.50;;;;;;;19.45;64.82;96317.94;5055998;28;20200;-65
2021/05/05 04:24:22;;;;;;;2.23;1.50;;;;;;;19.44;64.75;96308.59;5058673;28;20656;-65
2021/05/05 04:26:49;;;;;;;1.40;1.30;;;;;;;19.10;64.44;96256.97;5064429;28;20192;-65
2021/05/05 04:29:15;;;;;;;1.40;1.30;;;;;;;19.43;64.47;96308.56;5068521;28;20208;-65
2021/05/05 04:31:41;;;;;;;1.47;1.37;;;;;;;19.50;64.68;96326.53;5052290;28;20690;-65
2021/05/05 04:34:09;;;;;;;1.83;1.70;;;;;;;19.50;64.74;96325.69;5069767;28;20200;-66
2021/05/05 04:36:35;;;;;;;1.23;1.23;;;;;;;19.29;64.52;96285.41;5068292;28;20254;-66
2021/05/05 04:39:03;;;;;;;1.47;1.37;;;;;;;19.37;64.59;96293.19;5068290;28;20204;-65
2021/05/05 04:41:29;;;;;;;1.67;1.47;;;;;;;19.52;64.13;96296.00;5052218;28;20258;-66
2021/05/05 04:43:55;;;;;;;1.80;1.50;;;;;;;19.52;63.94;96316.38;5068431;28;20220;-66
2021/05/05 04:46:21;;;;;;;1.67;1.57;;;;;;;19.51;63.56;96305.31;5069991;28;20303;-66
2021/05/05 04:48:47;;;;;;;1.50;1.40;;;;;;;19.07;63.59;96227.22;5068746;28;20196;-66
2021/05/05 04:51:13;;;;;;;2.13;1.53;;;;;;;19.37;63.48;96291.50;5051781;28;20239;-67
2021/05/05 04:53:39;;;;;;;1.60;1.40;;;;;;;19.49;64.05;96309.56;5068580;28;20204;-67
2021/05/05 04:56:06;;;;;;;1.57;1.47;;;;;;;19.35;63.88;96285.50;5069690;28;20674;-66
2021/05/05 04:58:32;;;;;;;1.50;1.40;;;;;;;19.35;63.98;96290.59;5068781;28;20619;-66
2021/05/05 05:00:58;;;;;;;2.53;1.47;;;;;;;19.03;64.38;96232.22;5068471;28;20201;-66
2021/05/05 05:03:24;;;;;;;1.93;1.43;;;;;;;19.35;64.47;96284.63;5051545;28;20266;-66
2021/05/05 05:05:50;;;;;;;1.70;1.40;;;;;;;19.36;64.50;96294.84;5068328;28;20281;-68
2021/05/05 05:08:16;;;;;;;1.60;1.50;;;;;;;19.46;64.31;96299.31;5068630;28;20576;-67
2021/05/05 05:10:42;;;;;;;1.57;1.47;;;;;;;19.48;64.93;96305.25;5068630;28;20295;-67
2021/05/05 05:13:08;;;;;;;1.47;1.37;;;;;;;19.37;64.68;96316.09;5070501;28;20200;-67
2021/05/05 05:15:35;;;;;;;1.60;1.50;;;;;;;19.48;64.77;96353.66;5072055;28;20266;-65
2021/05/05 05:18:01;;;;;;;1.30;1.20;;;;;;;19.19;64.40;96306.38;5071794;28;20204;-65
2021/05/05 05:20:27;;;;;;;1.57;1.47;;;;;;;19.41;64.61;96353.53;5068822;28;20627;-66
2021/05/05 05:22:55;;;;;;;1.23;1.23;;;;;;;19.47;64.08;96366.38;5065556;28;20311;-66
2021/05/05 05:25:24;;;;;;;1.40;1.30;;;;;;;18.95;64.48;96297.41;5064155;28;20217;-66
2021/05/05 05:27:50;;;;;;;2.10;1.50;;;;;;;19.43;65.01;96372.25;5045370;28;20708;-64
2021/05/05 05:30:17;;;;;;;1.60;1.50;;;;;;;19.32;64.53;96361.88;5057733;28;20228;-65
2021/05/05 05:32:43;;;;;;;1.90;1.50;;;;;;;19.42;64.52;96370.56;5068530;28;20644;-64
2021/05/05 05:35:10;;;;;;;1.50;1.40;;;;;;;17.78;64.53;96085.56;5065211;22;20247;-65
2021/05/05 05:37:36;;;;;;;2.20;1.50;;;;;;;19.45;64.47;96370.63;5072761;28;20279;-65
2021/05/05 05:40:04;;;;;;;1.70;1.40;;;;;;;19.27;64.65;96339.69;5092023;28;20290;-65
2021/05/05 05:42:30;;;;;;;2.47;1.60;;;;;;;19.43;64.85;96365.50;5091827;28;20265;-65
2021/05/05 05:44:56;;;;;;;1.30;1.20;;;;;;;19.44;64.91;96373.97;5090803;28;20676;-65
2021/05/05 05:47:22;;;;;;;1.40;1.30;;;;;;;19.43;64.72;96370.59;5072723;28;20207;-65
2021/05/05 05:49:48;;;;;;;1.53;1.43;;;;;;;19.43;64.98;96362.94;5071121;28;20204;-65
2021/05/05 05:52:14;;;;;;;1.40;1.30;;;;;;;19.42;64.69;96366.28;5072845;28;20220;-65
2021/05/05 05:54:42;;;;;;;1.97;1.50;;;;;;;19.41;65.12;96366.28;5071188;28;20200;-65
2021/05/05 05:57:08;;;;;;;1.40;1.30;;;;;;;19.20;65.54;96332.72;5071148;28;20263;-65
2021/05/05 05:59:34;;;;;;;4.03;1.70;;;;;;;19.39;65.08;96367.94;5054754;28;20295;-65
2021/05/05 06:02:00;;;;;;;1.30;1.20;;;;;;;19.38;65.05;96374.72;5072352;28;20224;-65
2021/05/05 06:04:27;;;;;;;1.40;1.30;;;;;;;19.37;64.99;96378.09;5071794;28;20324;-65
2021/05/05 06:06:53;;;;;;;1.50;1.30;;;;;;;19.36;65.28;96388.28;5072326;28;20736;-65
2021/05/05 06:09:19;;;;;;;1.37;1.30;;;;;;;19.35;65.57;96392.50;5072605;28;20681;-64
2021/05/05 06:11:45;;;;;;;2.00;1.50;;;;;;;19.35;65.91;96399.25;5071298;28;20296;-64
2021/05/05 06:14:15;;;;;;;3.80;1.30;;;;;;;19.33;65.68;96409.44;5071047;28;20264;-64
2021/05/05 06:16:42;;;;;;;2.43;1.40;;;;;;;19.33;66.28;96406.88;5072363;28;20252;-65
2021/05/05 06:19:08;;;;;;;1.67;1.40;;;;;;;19.33;65.82;96406.03;5072168;28;20203;-65
2021/05/05 06:21:34;;;;;;;1.33;1.23;;;;;;;19.33;65.98;96421.31;5072626;28;20247;-65
2021/05/05 06:24:00;;;;;;;1.50;1.40;;;;;;;19.32;65.96;96427.22;5070193;28;20227;-65
2021/05/05 06:26:26;;;;;;;1.90;1.30;;;;;;;19.32;65.85;96430.66;5072273;28;20227;-66
2021/05/05 06:28:53;;;;;;;1.93;1.30;;;;;;;19.32;66.05;96439.97;5072143;28;20240;-65
2021/05/05 06:31:19;;;;;;;1.30;1.20;;;;;;;19.31;65.82;96438.25;5072192;28;20208;-65
2021/05/05 06:33:45;;;;;;;1.40;1.30;;;;;;;19.31;65.61;96435.72;5071575;28;20685;-65
2021/05/05 06:36:11;;;;;;;1.30;1.20;;;;;;;19.31;66.24;96433.16;5072039;28;20282;-65
2021/05/05 06:38:37;;;;;;;1.33;1.23;;;;;;;19.30;66.33;96431.44;5054194;28;20337;-65
2021/05/05 06:41:03;;;;;;;1.40;1.30;;;;;;;19.30;66.08;96434.84;5071223;28;20196;-65
2021/05/05 06:43:29;;;;;;;1.30;1.20;;;;;;;19.29;65.71;96435.69;5071338;28;20248;-65
2021/05/05 06:45:55;;;;;;;1.10;1.10;;;;;;;19.30;65.35;96426.34;5071569;28;20251;-65
2021/05/05 06:48:21;;;;;;;1.70;1.57;;;;;;;19.30;66.16;96423.81;5072041;28;20246;-65
2021/05/05 06:50:48;;;;;;;2.10;1.33;;;;;;;19.29;66.00;96427.16;5070209;28;20633;-65
2021/05/05 06:53:14;;;;;;;1.50;1.40;;;;;;;19.29;65.92;96419.53;5071188;28;20196;-65
2021/05/05 06:55:42;;;;;;;1.40;1.30;;;;;;;19.29;66.12;96429.72;5072085;28;20224;-65
2021/05/05 06:58:08;;;;;;;1.13;1.10;;;;;;;19.29;66.02;96427.16;5071752;28;20204;-65
2021/05/05 07:00:34;;;;;;;2.30;1.50;;;;;;;19.27;65.88;96424.59;5071846;28;20677;-64
2021/05/05 07:03:00;;;;;;;1.40;1.30;;;;;;;19.28;66.06;96428.88;5070715;28;20212;-65
2021/05/05 07:05:30;;;;;;;1.57;1.47;;;;;;;19.28;66.26;96433.09;5071027;28;20208;-65
2021/05/05 07:07:56;;;;;;;1.47;1.37;;;;;;;19.28;65.98;96439.06;5070947;28;20224;-65
2021/05/05 07:10:22;;;;;;;1.40;1.30;;;;;;;19.27;65.99;96429.69;5071603;28;20625;-65
2021/05/05 07:12:48;;;;;;;1.50;1.40;;;;;;;19.28;66.18;96430.53;5070820;28;20196;-66
2021/05/05 07:15:14;;;;;;;1.23;1.13;;;;;;;19.27;66.08;96428.84;5072088;28;20651;-65
2021/05/05 07:17:40;;;;;;;1.40;1.30;;;;;;;19.26;65.47;96432.16;5070337;28;20296;-63
2021/05/05 07:20:06;;;;;;;1.30;1.23;;;;;;;19.26;65.99;96433.03;5071313;28;20235;-63
2021/05/05 07:22:33;;;;;;;1.50;1.40;;;;;;;19.25;65.95;96431.31;5069923;28;20234;-65
2021/05/05 07:24:59;;;;;;;2.03;1.53;;;;;;;19.25;65.90;96431.31;5070999;28;20230;-64
2021/05/05 07:27:25;;;;;;;1.40;1.30;;;;;;;19.08;66.18;96406.31;5071315;28;20246;-64
2021/05/05 07:29:51;;;;;;;1.63;1.30;;;;;;;19.24;66.72;96444.00;5070047;28;20245;-64
2021/05/05 07:32:17;;;;;;;1.40;1.30;;;;;;;19.25;66.36;96445.72;5071402;28;20204;-63
2021/05/05 07:34:44;;;;;;;2.40;1.60;;;;;;;19.25;66.52;96456.78;5070396;28;20669;-64
2021/05/05 07:37:16;;;;;;;2.17;1.60;;;;;;;19.25;66.75;96458.47;5070281;28;20734;-64
2021/05/05 07:40:14;;;;;;;3.80;1.67;;;;;;;19.24;66.79;96457.59;5069394;28;20204;-63
2021/05/05 07:47:57;;;;;;;2.90;1.37;;;;;;;19.24;67.11;96460.16;5070790;28;20200;-63
2021/05/05 07:50:23;;;;;;;1.97;1.43;;;;;;;19.25;67.23;96469.53;5070690;28;20234;-64
2021/05/05 07:52:50;;;;;;;1.50;1.40;;;;;;;19.26;67.24;96480.56;5070586;28;20177;-64
2021/05/05 07:55:15;;;;;;;2.70;1.40;;;;;;;18.45;67.12;96336.19;5070232;28;20239;-64
2021/05/05 07:57:42;;;;;;;2.17;1.40;;;;;;;19.26;67.27;96462.72;5052824;28;20172;-65
2021/05/05 08:00:09;;;;;;;1.97;1.40;;;;;;;19.09;67.01;96454.72;5070707;28;20313;-65
2021/05/05 08:02:35;;;;;;;3.33;1.60;;;;;;;19.27;66.87;96478.06;5052992;28;20204;-64
2021/05/05 08:05:03;;;;;;;5.33;1.70;;;;;;;19.26;66.37;96481.44;5070279;28;20206;-65
2021/05/05 08:07:29;;;;;;;5.30;1.50;;;;;;;19.27;65.97;96477.25;5068535;28;20234;-65
2021/05/05 08:09:55;;;;;;;4.17;1.43;;;;;;;19.28;65.38;96471.31;5070833;28;20239;-65
2021/05/05 08:12:21;;;;;;;7.70;1.40;;;;;;;19.27;65.99;96467.88;5069372;28;20261;-64
2021/05/05 08:14:49;;;;;;;2.30;1.40;;;;;;;19.28;66.05;96472.16;5070110;28;20287;-65
2021/05/05 08:17:16;;;;;;;1.97;1.40;;;;;;;19.27;66.37;96470.44;5070804;28;20204;-65
2021/05/05 08:19:43;;;;;;;4.67;1.50;;;;;;;19.28;66.28;96466.22;5070430;28;20200;-65
2021/05/05 08:22:09;;;;;;;2.87;1.67;;;;;;;19.29;66.57;96480.66;5070642;28;20200;-65
2021/05/05 08:24:37;;;;;;;5.23;1.80;;;;;;;19.28;66.38;96479.81;5068676;28;20305;-63
2021/05/05 08:27:03;;;;;;;1.60;1.50;;;;;;;19.28;66.42;96473.84;5070248;28;20224;-65
2021/05/05 08:29:31;;;;;;;1.47;1.37;;;;;;;19.28;66.33;96468.75;5069034;28;20678;-65
2021/05/05 08:31:59;;;;;;;1.50;1.40;;;;;;;19.28;66.19;96484.03;5070415;28;20295;-65
2021/05/05 08:34:28;;;;;;;2.70;1.60;;;;;;;19.27;66.26;96475.53;5070025;28;20196;-65
2021/05/05 08:36:54;;;;;;;3.30;1.40;;;;;;;19.27;66.22;96485.72;5070173;28;20721;-65
2021/05/05 08:39:20;;;;;;;3.13;1.50;;;;;;;19.09;66.14;96459.81;5069583;28;20673;-65
2021/05/05 08:41:46;;;;;;;1.60;1.47;;;;;;;19.28;66.07;96482.38;5052832;28;20292;-65
2021/05/05 08:44:13;;;;;;;2.20;1.40;;;;;;;19.11;66.64;96473.44;5070147;28;20228;-65
2021/05/05 08:46:40;;;;;;;1.47;1.37;;;;;;;19.27;66.59;96497.63;5036248;28;20228;-65
2021/05/05 08:49:06;;;;;;;3.60;1.40;;;;;;;17.84;66.89;96260.16;5074193;28;20603;-65
2021/05/05 08:51:33;;;;;;;3.50;1.40;;;;;;;19.27;67.03;96511.19;5072576;28;20720;-64
2021/05/05 08:54:01;;;;;;;1.50;1.40;;;;;;;18.57;66.88;96393.31;5073486;28;20243;-65
2021/05/05 08:56:34;;;;;;;2.53;1.40;;;;;;;19.28;67.08;96517.16;5072333;28;20270;-65
2021/05/05 08:59:05;;;;;;;3.17;1.60;;;;;;;19.14;67.00;96493.03;5073746;28;20279;-65
2021/05/05 09:01:31;;;;;;;3.80;1.87;;;;;;;19.27;67.27;96523.91;5072288;28;20639;-65
2021/05/05 09:03:58;;;;;;;1.97;1.37;;;;;;;19.28;67.37;96524.78;5073446;28;20658;-65
2021/05/05 09:06:45;;;;;;;2.07;1.50;;;;;;;19.27;67.17;96512.91;5055616;28;20227;-64
2021/05/05 09:09:12;;;;;;;2.40;1.40;;;;;;;18.73;65.73;96425.03;5073294;28;20235;-65
2021/05/05 09:11:45;;;;;;;2.53;1.63;;;;;;;19.28;65.10;96522.25;5055856;28;20228;-65
2021/05/05 09:14:11;;;;;;;2.00;1.60;;;;;;;19.28;65.44;96524.78;5073301;28;20808;-65
2021/05/05 09:16:37;;;;;;;3.53;1.60;;;;;;;19.28;65.63;96522.25;5075396;28;20278;-65
2021/05/05 09:19:09;;;;;;;4.23;1.67;;;;;;;19.27;65.71;96520.53;5074622;28;20225;-65
2021/05/05 09:21:43;;;;;;;2.47;1.87;;;;;;;19.28;65.88;96520.56;5074978;28;20209;-63
2021/05/05 09:24:29;;;;;;;3.57;2.10;;;;;;;19.28;65.90;96525.66;5074617;28;20242;-66
2021/05/05 09:27:07;;;;;;;4.27;1.80;;;;;;;19.28;66.06;96525.66;5075895;28;20262;-65
2021/05/05 09:29:49;;;;;;;3.67;1.73;;;;;;;19.29;65.97;96516.31;5074916;28;20265;-66
2021/05/05 09:32:19;;;;;;;3.00;2.10;;;;;;;19.28;66.43;96509.50;5074599;28;20246;-65
2021/05/05 09:35:01;;;;;;;3.13;2.07;;;;;;;19.28;66.46;96510.38;5073808;28;20314;-65
2021/05/05 09:37:27;;;;;;;4.13;2.10;;;;;;;19.28;66.45;96501.88;5074927;28;20286;-66
2021/05/05 09:40:10;;;;;;;2.57;1.87;;;;;;;19.28;66.48;96507.84;5074410;28;20286;-66
2021/05/05 09:42:42;;;;;;;3.07;1.97;;;;;;;19.28;66.69;96497.66;5073406;28;20208;-64
2021/05/05 09:45:10;;;;;;;2.70;2.23;;;;;;;19.28;66.07;96478.94;5074012;28;20220;-66
2021/05/05 09:47:54;;;;;;;2.57;1.97;;;;;;;19.28;66.07;96491.69;5073996;28;20610;-65
2021/05/05 09:50:40;;;;;;;3.07;2.10;;;;;;;19.27;65.79;96488.25;5074228;28;20686;-66
2021/05/05 09:53:16;;;;;;;2.80;2.10;;;;;;;19.27;65.96;96478.06;5073939;28;20200;-65
2021/05/05 09:55:44;;;;;;;3.30;2.30;;;;;;;19.14;65.99;96462.47;5073466;28;20273;-65
2021/05/05 09:58:32;;;;;;;4.57;2.57;;;;;;;17.98;65.93;96269.84;5055246;28;20346;-66
2021/05/05 10:01:04;;;;;;;3.23;2.27;;;;;;;19.28;66.03;96497.66;5072632;28;20204;-66
2021/05/05 10:03:36;;;;;;;2.97;2.33;;;;;;;15.50;65.98;95976.69;5073134;28;20269;-67
2021/05/05 10:06:28;;;;;;;2.47;2.27;;;;;;;19.26;66.10;96504.34;5073811;28;20849;-65
2021/05/05 10:09:07;;;;;;;3.47;2.33;;;;;;;19.28;66.07;96499.31;5073653;28;20204;-63
2021/05/05 10:11:34;;;;;;;3.63;2.20;;;;;;;19.27;66.28;96498.44;5073535;28;20227;-65
2021/05/05 10:14:08;;;;;;;3.57;2.30;;;;;;;19.27;66.13;96515.44;5073058;28;20254;-65
2021/05/05 10:16:36;;;;;;;3.70;2.33;;;;;;;19.26;66.14;96514.53;5073887;28;20570;-66
2021/05/05 10:19:04;;;;;;;3.60;2.40;;;;;;;19.27;66.05;96523.09;5071341;28;20298;-65
2021/05/05 10:21:30;;;;;;;2.47;2.23;;;;;;;19.09;66.15;96486.94;5071945;28;20635;-65
2021/05/05 10:23:57;;;;;;;3.27;2.17;;;;;;;19.28;66.18;96519.69;5054779;28;20252;-66
2021/05/05 10:26:25;;;;;;;4.80;2.20;;;;;;;19.28;66.29;96522.25;5073462;28;20282;-65
2021/05/05 10:28:51;;;;;;;3.43;2.30;;;;;;;19.28;66.21;96534.97;5072824;28;20200;-65
2021/05/05 10:31:21;;;;;;;2.83;2.17;;;;;;;19.29;66.29;96529.06;5072895;28;20644;-65
2021/05/05 10:33:47;;;;;;;4.13;2.70;;;;;;;19.12;66.18;96504.84;5072263;28;20231;-66
2021/05/05 10:36:27;;;;;;;3.43;2.30;;;;;;;19.29;66.24;96542.66;5070635;28;20220;-65
2021/05/05 10:38:54;;;;;;;2.83;2.33;;;;;;;19.29;66.22;96540.09;5071479;28;20228;-65
2021/05/05 10:41:21;;;;;;;3.43;2.10;;;;;;;19.30;66.37;96546.06;5071719;28;20623;-66
2021/05/05 10:43:51;;;;;;;3.20;2.17;;;;;;;19.14;66.37;96511.72;5070836;28;20243;-66
2021/05/05 10:46:25;;;;;;;3.90;2.10;;;;;;;19.30;66.34;96531.63;5070961;28;20255;-66
2021/05/05 10:49:15;;;;;;;3.20;2.20;;;;;;;19.15;66.18;96494.72;5072245;28;20290;-66
2021/05/05 10:51:45;;;;;;;2.37;2.00;;;;;;;19.29;66.29;96529.91;5070966;28;20553;-64
2021/05/05 10:54:21;;;;;;;5.47;2.60;;;;;;;19.29;66.12;96526.50;5072123;28;20258;-65
2021/05/05 10:57:10;;;;;;;2.73;2.10;;;;;;;19.29;66.05;96516.31;5051698;28;20256;-66
2021/05/05 10:59:57;;;;;;;2.77;2.10;;;;;;;19.28;65.87;96540.94;5050757;28;20702;-65
2021/05/05 11:03:02;;;;;;;2.87;2.17;;;;;;;19.29;65.68;96781.22;5051686;28;20197;-66
2021/05/05 11:05:28;;;;;;;4.33;2.20;;;;;;;19.28;65.91;96543.50;5043014;28;20824;-65
2021/05/05 11:08:20;;;;;;;3.03;2.00;;;;;;;19.28;65.81;96527.34;5051895;28;20205;-65
2021/05/05 11:10:48;;;;;;;4.53;2.60;;;;;;;19.16;65.85;96522.78;5043480;28;20243;-65
2021/05/05 11:13:22;;;;;;;3.40;2.13;;;;;;;19.28;66.10;96546.03;5052648;28;20284;-65
2021/05/05 11:15:48;;;;;;;5.03;2.30;;;;;;;19.28;66.10;96538.41;5051124;28;20251;-66
2021/05/05 11:18:30;;;;;;;4.40;2.53;;;;;;;19.28;65.99;96540.94;5050851;28;20204;-65
2021/05/05 11:20:57;;;;;;;4.57;1.90;;;;;;;19.28;65.94;96551.13;5050849;28;20682;-66
2021/05/05 11:23:32;;;;;;;10.13;2.60;;;;;;;19.28;66.08;96535.84;5050263;28;20309;-66
2021/05/05 11:26:19;;;;;;;6.80;2.70;;;;;;;19.28;66.18;96538.41;5050831;28;20252;-66
2021/05/05 11:28:48;;;;;;;11.13;3.60;;;;;;;19.28;66.22;96529.88;5058612;28;20892;-64
2021/05/05 11:31:14;;;;;;;11.93;3.10;;;;;;;19.29;66.28;96555.41;5070740;28;20200;-65
2021/05/05 11:33:59;;;;;;;11.90;3.97;;;;;;;19.29;66.44;96545.22;5070237;28;20239;-66
2021/05/05 11:36:26;;;;;;;12.77;3.23;;;;;;;19.17;66.28;96516.88;5094426;22;20247;-65
2021/05/05 11:38:52;;;;;;;14.73;3.70;;;;;;;18.86;66.46;96450.78;5069085;28;20196;-65
2021/05/05 11:41:22;;;;;;;12.67;3.40;;;;;;;19.19;66.27;96519.47;5050814;28;20649;-67
2021/05/05 11:43:48;;;;;;;15.13;3.20;;;;;;;19.31;66.42;96550.34;5069170;28;20235;-65
2021/05/05 11:46:14;;;;;;;7.87;3.33;;;;;;;19.17;66.20;96523.66;5069031;28;20721;-65